Time;durP1;ratioP1;P1;durP2;ratioP2;P2;SDS_P1;SDS_P2;PMS_P1;PMS_P2;Temp;Humidity;BMP_temperature;BMP_pressure;BME280_temperature;BME280_humidity;BME280_pressure;Samples;Min_cycle;Max_cycle;Signal;HPM_P1;HPM_P2
2021/11/20 00:01:59;;;;;;;0.50;0.40;;;5.80;99.90;;;;;;5033769;28;20431;-88
2021/11/20 00:04:27;;;;;;;0.70;0.70;;;5.80;99.90;;;;;;5033881;28;20475;-88
2021/11/20 00:06:56;;;;;;;0.97;0.97;;;5.80;99.90;;;;;;5033534;28;20848;-89
2021/11/20 00:09:26;;;;;;;0.40;0.40;;;5.70;99.90;;;;;;5033871;28;20439;-88
2021/11/20 00:11:56;;;;;;;0.70;0.33;;;5.80;99.90;;;;;;5034270;28;20435;-88
2021/11/20 00:14:25;;;;;;;0.30;0.30;;;5.80;99.90;;;;;;5033639;28;20451;-88
2021/11/20 00:16:53;;;;;;;0.60;0.60;;;5.80;99.90;;;;;;5033698;28;20450;-89
2021/11/20 00:19:22;;;;;;;0.33;0.33;;;5.80;99.90;;;;;;5033795;28;20950;-88
2021/11/20 00:21:54;;;;;;;0.37;0.37;;;5.80;99.90;;;;;;5033765;28;20464;-89
2021/11/20 00:24:23;;;;;;;0.60;0.53;;;5.80;99.90;;;;;;5033956;28;20451;-88
2021/11/20 00:26:50;;;;;;;0.30;0.20;;;5.80;99.90;;;;;;5033491;28;20482;-88
2021/11/20 00:29:26;;;;;;;0.47;0.40;;;5.80;99.90;;;;;;5033609;28;20949;-88
2021/11/20 00:31:56;;;;;;;0.30;0.30;;;5.70;99.90;;;;;;5033416;28;20545;-88
2021/11/20 00:34:29;;;;;;;0.60;0.60;;;5.70;99.90;;;;;;5033653;28;20497;-88
2021/11/20 00:36:58;;;;;;;0.30;0.30;;;5.80;99.90;;;;;;5037200;28;20446;-89
2021/11/20 00:39:29;;;;;;;0.30;0.30;;;5.80;99.90;;;;;;5037002;28;20439;-88
2021/11/20 00:41:56;;;;;;;0.67;0.67;;;5.80;99.90;;;;;;5037356;28;20777;-88
2021/11/20 00:44:23;;;;;;;0.40;0.40;;;5.80;99.90;;;;;;5036879;28;20458;-88
2021/11/20 00:46:51;;;;;;;0.73;0.40;;;5.80;99.90;;;;;;5037068;28;20485;-89
2021/11/20 00:49:20;;;;;;;0.50;0.30;;;5.80;99.90;;;;;;5037195;28;20450;-89
2021/11/20 00:51:48;;;;;;;2.10;0.97;;;5.90;99.90;;;;;;5037086;28;20431;-88
2021/11/20 00:54:17;;;;;;;0.60;0.40;;;5.90;99.90;;;;;;5036821;28;20478;-88
2021/11/20 00:56:44;;;;;;;0.30;0.30;;;5.90;99.90;;;;;;5036826;28;20449;-88
2021/11/20 00:59:11;;;;;;;0.40;0.40;;;5.90;99.90;;;;;;5036676;28;20477;-88
2021/11/20 01:01:41;;;;;;;0.67;0.67;;;5.80;99.90;;;;;;5036902;28;20442;-88
2021/11/20 01:04:09;;;;;;;0.50;0.50;;;5.80;99.90;;;;;;5036754;28;20480;-88
2021/11/20 01:06:37;;;;;;;0.30;0.30;;;5.80;99.90;;;;;;5036798;28;20485;-88
2021/11/20 01:09:04;;;;;;;0.70;0.40;;;5.80;99.90;;;;;;5036730;28;20450;-88
2021/11/20 01:11:36;;;;;;;0.30;0.30;;;5.80;99.90;;;;;;5036498;28;20435;-89
2021/11/20 01:14:06;;;;;;;0.37;0.33;;;5.80;99.90;;;;;;5036934;28;20548;-88
2021/11/20 01:16:33;;;;;;;0.77;0.77;;;5.70;99.90;;;;;;5037107;28;20438;-88
2021/11/20 01:19:03;;;;;;;1.43;0.30;;;5.70;99.90;;;;;;5036448;28;20434;-88
2021/11/20 01:21:30;;;;;;;0.50;0.50;;;5.80;99.90;;;;;;5036228;28;20435;-88
2021/11/20 01:23:57;;;;;;;0.60;0.60;;;5.80;99.90;;;;;;5036237;28;20470;-89
2021/11/20 01:26:24;;;;;;;0.30;0.30;;;5.80;99.90;;;;;;5036587;28;20481;-89
2021/11/20 01:28:55;;;;;;;0.30;0.30;;;5.80;99.90;;;;;;5037349;28;20796;-89
2021/11/20 01:31:25;;;;;;;0.30;0.30;;;5.90;99.90;;;;;;5036897;28;20845;-89
2021/11/20 01:33:52;;;;;;;0.80;0.57;;;5.80;99.90;;;;;;5036357;28;20454;-85
2021/11/20 01:36:23;;;;;;;0.30;0.20;;;5.80;99.90;;;;;;5035433;28;20811;-85
2021/11/20 01:38:51;;;;;;;0.30;0.30;;;5.90;99.90;;;;;;5035551;28;20458;-85
2021/11/20 01:41:19;;;;;;;0.50;0.50;;;5.90;99.90;;;;;;5035125;28;20427;-85
2021/11/20 01:43:49;;;;;;;0.30;0.30;;;5.90;99.90;;;;;;5034957;28;20455;-85
2021/11/20 01:46:23;;;;;;;0.30;0.20;;;5.90;99.90;;;;;;5034887;28;20479;-85
2021/11/20 01:48:58;;;;;;;0.30;0.30;;;5.90;99.90;;;;;;5034993;28;20937;-85
2021/11/20 01:51:30;;;;;;;0.50;0.50;;;5.80;99.90;;;;;;5035303;28;20960;-85
2021/11/20 01:54:06;;;;;;;2.43;2.33;;;5.80;99.90;;;;;;5035883;28;20475;-85
2021/11/20 01:56:40;;;;;;;1.80;0.50;;;5.80;99.90;;;;;;5034946;28;20430;-84
2021/11/20 01:59:12;;;;;;;0.30;0.20;;;5.80;99.90;;;;;;5034699;28;20989;-84
2021/11/20 02:01:45;;;;;;;0.30;0.30;;;5.80;99.90;;;;;;5035031;28;20435;-85
2021/11/20 02:04:18;;;;;;;0.50;0.50;;;5.80;99.90;;;;;;5034597;28;20475;-85
2021/11/20 02:06:50;;;;;;;0.40;0.40;;;5.70;99.90;;;;;;5034960;28;20477;-85
2021/11/20 02:09:24;;;;;;;0.30;0.30;;;5.70;99.90;;;;;;5034986;28;20791;-84
2021/11/20 02:11:55;;;;;;;0.30;0.20;;;5.70;99.90;;;;;;5035576;28;20435;-88
2021/11/20 02:14:23;;;;;;;0.60;0.60;;;5.80;99.90;;;;;;5035294;28;20862;-88
2021/11/20 02:16:55;;;;;;;0.30;0.20;;;5.70;99.90;;;;;;5035289;28;20443;-88
2021/11/20 02:19:26;;;;;;;0.37;0.30;;;5.70;99.90;;;;;;5035533;28;20487;-88
2021/11/20 02:21:58;;;;;;;0.30;0.30;;;5.80;99.90;;;;;;5035549;28;20416;-89
2021/11/20 02:24:24;;;;;;;0.60;0.33;;;5.80;99.90;;;;;;5035281;28;20463;-88
2021/11/20 02:26:51;;;;;;;0.47;0.47;;;5.80;99.90;;;;;;5035027;28;20474;-88
2021/11/20 02:29:19;;;;;;;0.50;0.50;;;5.80;99.90;;;;;;5034934;28;20958;-88
2021/11/20 02:31:49;;;;;;;0.60;0.60;;;5.80;99.90;;;;;;5035258;28;20490;-88
2021/11/20 02:34:19;;;;;;;0.30;0.20;;;5.80;99.90;;;;;;5034923;28;20455;-89
2021/11/20 02:36:46;;;;;;;1.00;1.00;;;5.80;99.90;;;;;;5034904;28;20450;-85
2021/11/20 02:39:17;;;;;;;0.30;0.20;;;5.80;99.90;;;;;;5034556;28;20454;-85
2021/11/20 02:41:47;;;;;;;1.37;1.37;;;5.70;99.90;;;;;;5034239;28;20435;-85
2021/11/20 02:44:15;;;;;;;0.60;0.60;;;5.70;99.90;;;;;;5034537;28;20470;-89
2021/11/20 02:46:45;;;;;;;0.30;0.30;;;5.70;99.90;;;;;;5034886;28;20482;-86
2021/11/20 02:49:14;;;;;;;1.00;1.00;;;5.80;99.90;;;;;;5034698;28;20794;-85
2021/11/20 02:51:44;;;;;;;1.73;0.33;;;5.70;99.90;;;;;;5034038;28;20450;-85
2021/11/20 02:54:13;;;;;;;1.27;1.17;;;5.70;99.90;;;;;;5033844;28;20982;-85
2021/11/20 02:56:43;;;;;;;0.60;0.60;;;5.70;99.90;;;;;;5033935;28;20526;-85
2021/11/20 02:59:10;;;;;;;0.40;0.40;;;5.70;99.90;;;;;;5032868;28;20478;-85
2021/11/20 03:01:38;;;;;;;0.30;0.30;;;5.60;99.90;;;;;;5033898;28;20532;-82
2021/11/20 03:04:05;;;;;;;0.30;0.30;;;5.60;99.90;;;;;;5033691;28;20478;-82
2021/11/20 03:06:34;;;;;;;0.40;0.40;;;5.60;99.90;;;;;;5033864;28;20454;-82
2021/11/20 03:09:01;;;;;;;0.50;0.50;;;5.60;99.90;;;;;;5033665;28;20538;-82
2021/11/20 03:11:28;;;;;;;0.60;0.60;;;5.60;99.90;;;;;;5034493;28;20470;-88
2021/11/20 03:13:57;;;;;;;0.30;0.30;;;5.70;99.90;;;;;;5033712;28;20458;-82
2021/11/20 03:16:25;;;;;;;0.30;0.20;;;5.70;99.90;;;;;;5033276;28;20466;-82
2021/11/20 03:18:51;;;;;;;0.93;0.93;;;5.70;99.90;;;;;;5033741;28;20534;-82
2021/11/20 03:21:19;;;;;;;0.70;0.70;;;5.70;99.90;;;;;;5033181;28;20950;-82
2021/11/20 03:23:49;;;;;;;0.30;0.20;;;5.60;99.90;;;;;;5033412;28;20470;-82
2021/11/20 03:26:16;;;;;;;0.53;0.53;;;5.70;99.90;;;;;;5033484;28;20431;-82
2021/11/20 03:28:43;;;;;;;0.30;0.20;;;5.60;99.90;;;;;;5033597;28;20483;-82
2021/11/20 03:31:10;;;;;;;0.30;0.30;;;5.60;99.90;;;;;;5033381;28;20454;-82
2021/11/20 03:33:38;;;;;;;0.30;0.30;;;5.50;99.90;;;;;;5037160;28;20446;-82
2021/11/20 03:36:05;;;;;;;0.30;0.30;;;5.60;99.90;;;;;;5033403;28;20445;-82
2021/11/20 03:38:32;;;;;;;0.30;0.30;;;5.60;99.90;;;;;;5033446;28;20447;-82
2021/11/20 03:41:00;;;;;;;0.30;0.30;;;5.60;99.90;;;;;;5033474;28;20457;-82
2021/11/20 03:43:27;;;;;;;0.33;0.33;;;5.60;99.90;;;;;;5032952;28;20442;-82
2021/11/20 03:45:54;;;;;;;0.30;0.30;;;5.70;99.90;;;;;;5033015;28;20443;-82
2021/11/20 03:48:21;;;;;;;0.50;0.50;;;5.60;99.90;;;;;;5033253;28;20627;-82
2021/11/20 03:50:49;;;;;;;0.30;0.20;;;5.60;99.90;;;;;;5033208;28;20458;-82
2021/11/20 03:53:17;;;;;;;0.30;0.30;;;5.60;99.90;;;;;;5032853;28;20819;-82
2021/11/20 03:55:46;;;;;;;0.30;0.20;;;5.70;99.90;;;;;;5033071;28;20470;-82
2021/11/20 03:58:17;;;;;;;0.67;0.60;;;5.70;99.90;;;;;;5033117;28;20482;-86
2021/11/20 04:00:48;;;;;;;1.17;1.07;;;5.70;99.90;;;;;;5033644;28;20443;-87
2021/11/20 04:03:20;;;;;;;0.30;0.30;;;5.70;99.90;;;;;;5033736;28;20891;-87
2021/11/20 04:05:47;;;;;;;2.73;0.57;;;5.70;99.90;;;;;;5033752;28;20466;-82
2021/11/20 04:08:14;;;;;;;0.63;0.43;;;5.70;99.90;;;;;;5032711;28;20470;-82
2021/11/20 04:10:41;;;;;;;0.40;0.40;;;5.70;99.90;;;;;;5036417;28;20455;-82
2021/11/20 04:13:07;;;;;;;1.50;1.50;;;5.70;99.90;;;;;;5036941;28;20946;-82
2021/11/20 04:15:35;;;;;;;0.60;0.30;;;5.70;99.90;;;;;;5037708;28;20957;-88
2021/11/20 04:18:02;;;;;;;0.93;0.93;;;5.70;99.90;;;;;;5037579;28;20443;-88
2021/11/20 04:20:29;;;;;;;0.30;0.20;;;5.70;99.90;;;;;;5037337;28;20810;-82
2021/11/20 04:22:56;;;;;;;0.90;0.60;;;5.80;99.90;;;;;;5037033;28;20453;-82
2021/11/20 04:25:24;;;;;;;0.30;0.30;;;5.80;99.90;;;;;;5036418;28;20557;-83
2021/11/20 04:27:51;;;;;;;0.40;0.40;;;5.80;99.90;;;;;;5036625;28;20483;-82
2021/11/20 04:30:21;;;;;;;0.40;0.40;;;5.80;99.90;;;;;;5037013;28;20462;-82
2021/11/20 04:32:50;;;;;;;0.33;0.33;;;5.70;99.90;;;;;;5036647;28;20926;-82
2021/11/20 04:35:19;;;;;;;0.83;0.83;;;5.80;99.90;;;;;;5036491;28;20481;-82
2021/11/20 04:37:46;;;;;;;0.40;0.40;;;5.80;99.90;;;;;;5036188;28;20930;-82
2021/11/20 04:40:13;;;;;;;0.50;0.37;;;5.80;99.90;;;;;;5036420;28;20451;-82
2021/11/20 04:42:40;;;;;;;0.30;0.30;;;5.80;99.90;;;;;;5036401;28;20450;-82
2021/11/20 04:45:10;;;;;;;0.30;0.30;;;5.80;99.90;;;;;;5036113;28;20985;-81
2021/11/20 04:47:37;;;;;;;0.30;0.23;;;5.80;99.90;;;;;;5037084;28;20902;-82
2021/11/20 04:50:08;;;;;;;0.50;0.30;;;5.80;99.90;;;;;;5036289;28;20812;-82
2021/11/20 04:52:35;;;;;;;1.47;1.37;;;5.80;99.90;;;;;;5036909;28;20930;-88
2021/11/20 04:55:04;;;;;;;0.83;0.83;;;5.90;99.90;;;;;;5037533;28;20474;-88
2021/11/20 04:57:31;;;;;;;0.30;0.30;;;5.80;99.90;;;;;;5036867;28;20942;-88
2021/11/20 04:59:58;;;;;;;0.33;0.33;;;5.80;99.90;;;;;;5037326;28;20458;-88
2021/11/20 05:02:24;;;;;;;0.33;0.33;;;5.80;99.90;;;;;;5036967;28;20454;-82
2021/11/20 05:04:52;;;;;;;1.27;1.17;;;5.80;99.90;;;;;;5035808;28;20827;-82
2021/11/20 05:07:20;;;;;;;0.30;0.30;;;5.80;99.90;;;;;;5036364;28;20535;-86
2021/11/20 05:09:46;;;;;;;0.37;0.27;;;5.80;99.90;;;;;;5036271;28;20549;-85
2021/11/20 05:12:13;;;;;;;0.30;0.30;;;5.70;99.90;;;;;;5036416;28;20445;-86
2021/11/20 05:14:40;;;;;;;0.30;0.30;;;5.70;99.90;;;;;;5036044;28;20466;-86
2021/11/20 05:17:07;;;;;;;0.30;0.30;;;5.80;99.90;;;;;;5035713;28;20443;-88
2021/11/20 05:19:36;;;;;;;0.40;0.40;;;5.80;99.90;;;;;;5037055;28;20806;-82
2021/11/20 05:22:02;;;;;;;2.43;0.40;;;5.80;99.90;;;;;;5035008;28;20530;-85
2021/11/20 05:24:30;;;;;;;0.47;0.47;;;5.80;99.90;;;;;;5035840;28;20451;-86
2021/11/20 05:27:00;;;;;;;0.47;0.40;;;5.80;99.90;;;;;;5036237;28;20985;-87
2021/11/20 05:29:34;;;;;;;0.30;0.30;;;5.80;99.90;;;;;;5036115;28;20809;-82
2021/11/20 05:32:01;;;;;;;2.47;2.47;;;5.80;99.90;;;;;;5035582;28;20500;-82
2021/11/20 05:34:28;;;;;;;0.50;0.50;;;5.80;99.90;;;;;;5035601;28;20826;-82
2021/11/20 05:36:55;;;;;;;0.40;0.40;;;5.80;99.90;;;;;;5040719;28;20454;-82
2021/11/20 05:39:21;;;;;;;0.97;0.97;;;5.80;99.90;;;;;;5037520;28;20442;-82
2021/11/20 05:41:51;;;;;;;3.03;1.50;;;5.80;99.90;;;;;;5035969;28;20454;-82
2021/11/20 05:44:18;;;;;;;0.30;0.20;;;5.80;99.90;;;;;;5035119;28;20458;-82
2021/11/20 05:46:45;;;;;;;2.53;0.70;;;5.90;99.90;;;;;;5035325;28;20457;-82
2021/11/20 05:49:12;;;;;;;0.30;0.30;;;5.90;99.90;;;;;;5036017;28;20493;-82
2021/11/20 05:51:39;;;;;;;0.30;0.20;;;5.90;99.90;;;;;;5035160;28;20458;-82
2021/11/20 05:54:07;;;;;;;0.50;0.30;;;5.90;99.90;;;;;;5035095;28;20836;-82
2021/11/20 05:56:34;;;;;;;0.30;0.30;;;5.90;99.90;;;;;;5035107;28;20454;-82
2021/11/20 05:59:02;;;;;;;0.40;0.30;;;5.90;99.90;;;;;;5035067;28;20482;-82
2021/11/20 06:01:28;;;;;;;0.70;0.70;;;5.80;99.90;;;;;;5034743;28;20441;-82
2021/11/20 06:03:55;;;;;;;0.63;0.60;;;5.80;99.90;;;;;;5034975;28;20481;-86
2021/11/20 06:06:22;;;;;;;0.47;0.47;;;5.90;99.90;;;;;;5035290;28;20449;-87
2021/11/20 06:08:49;;;;;;;0.40;0.37;;;5.90;99.90;;;;;;5035179;28;20565;-87
2021/11/20 06:11:17;;;;;;;0.30;0.30;;;5.90;99.90;;;;;;5035145;28;20451;-87
2021/11/20 06:13:45;;;;;;;0.60;0.60;;;5.90;99.90;;;;;;5034731;28;20521;-87
2021/11/20 06:16:13;;;;;;;0.63;0.63;;;5.80;99.90;;;;;;5034994;28;20453;-86
2021/11/20 06:18:40;;;;;;;0.30;0.20;;;5.80;99.90;;;;;;5035168;28;20446;-85
2021/11/20 06:21:08;;;;;;;0.37;0.37;;;5.90;99.90;;;;;;5035089;28;20464;-85
2021/11/20 06:23:38;;;;;;;0.30;0.30;;;5.80;99.90;;;;;;5034466;28;20814;-85
2021/11/20 06:26:05;;;;;;;0.30;0.30;;;5.80;99.90;;;;;;5034547;28;20512;-84
2021/11/20 06:28:32;;;;;;;2.50;0.40;;;5.80;99.90;;;;;;5034142;28;20485;-85
2021/11/20 06:30:59;;;;;;;0.40;0.30;;;5.80;99.90;;;;;;5034576;28;20450;-85
2021/11/20 06:33:28;;;;;;;0.50;0.30;;;5.80;99.90;;;;;;5033570;28;20451;-87
2021/11/20 06:35:55;;;;;;;0.30;0.30;;;5.80;99.90;;;;;;5034744;28;20451;-87
2021/11/20 06:38:21;;;;;;;0.50;0.50;;;5.80;99.90;;;;;;5034579;28;20443;-88
2021/11/20 06:40:51;;;;;;;0.30;0.30;;;5.80;99.90;;;;;;5033997;28;20439;-82
2021/11/20 06:43:21;;;;;;;0.30;0.30;;;5.80;99.90;;;;;;5034878;28;20501;-88
2021/11/20 06:45:50;;;;;;;1.90;1.80;;;5.80;99.90;;;;;;5034448;28;20439;-86
2021/11/20 06:48:18;;;;;;;0.30;0.20;;;5.80;99.90;;;;;;5034092;28;20486;-84
2021/11/20 06:50:47;;;;;;;0.30;0.27;;;5.80;99.90;;;;;;5033958;28;20962;-85
2021/11/20 06:53:15;;;;;;;0.63;0.40;;;5.80;99.90;;;;;;5033766;28;20787;-85
2021/11/20 06:55:42;;;;;;;1.87;1.77;;;5.80;99.90;;;;;;5034212;28;20466;-85
2021/11/20 06:58:22;;;;;;;0.30;0.30;;;5.80;99.90;;;;;;5033932;28;20474;-86
2021/11/20 07:00:51;;;;;;;0.30;0.30;;;5.80;99.90;;;;;;5034687;28;20497;-88
2021/11/20 07:03:23;;;;;;;0.37;0.30;;;5.80;99.90;;;;;;5034589;28;20993;-88
2021/11/20 07:05:54;;;;;;;0.37;0.37;;;5.90;99.90;;;;;;5035243;28;20779;-88
2021/11/20 07:08:23;;;;;;;0.80;0.80;;;5.90;99.90;;;;;;5034540;28;20986;-88
2021/11/20 07:10:51;;;;;;;0.30;0.30;;;5.90;99.90;;;;;;5033835;28;20454;-85
2021/11/20 07:13:19;;;;;;;0.87;0.87;;;5.90;99.90;;;;;;5033383;28;20955;-85
2021/11/20 07:15:46;;;;;;;0.40;0.40;;;5.90;99.90;;;;;;5033654;28;20471;-85
2021/11/20 07:18:12;;;;;;;0.50;0.50;;;5.90;99.90;;;;;;5033634;28;20450;-85
2021/11/20 07:20:40;;;;;;;0.30;0.30;;;5.90;99.90;;;;;;5033434;28;20439;-85
2021/11/20 07:23:09;;;;;;;0.93;0.93;;;5.90;99.90;;;;;;5033263;28;20435;-82
2021/11/20 07:25:38;;;;;;;0.50;0.50;;;5.90;99.90;;;;;;5033202;28;20447;-82
2021/11/20 07:28:06;;;;;;;0.30;0.30;;;6.00;99.90;;;;;;5033382;28;20483;-82
2021/11/20 07:30:35;;;;;;;0.47;0.47;;;6.00;99.90;;;;;;5033151;28;20450;-82
2021/11/20 07:33:02;;;;;;;0.60;0.60;;;6.00;99.90;;;;;;5033414;28;20446;-82
2021/11/20 07:35:33;;;;;;;0.30;0.30;;;6.00;99.90;;;;;;5033288;28;20478;-82
2021/11/20 07:38:01;;;;;;;0.43;0.43;;;6.00;99.90;;;;;;5039448;28;20554;-88
2021/11/20 07:40:31;;;;;;;0.30;0.20;;;6.00;99.90;;;;;;5033911;28;20462;-82
2021/11/20 07:42:58;;;;;;;0.40;0.40;;;6.00;99.90;;;;;;5033605;28;20435;-82
2021/11/20 07:45:25;;;;;;;0.40;0.40;;;6.10;99.90;;;;;;5033031;28;20463;-82
2021/11/20 07:47:51;;;;;;;0.47;0.47;;;6.10;99.90;;;;;;5032921;28;20447;-85
2021/11/20 07:50:21;;;;;;;0.40;0.40;;;6.10;99.90;;;;;;5033410;28;20453;-86
2021/11/20 07:52:49;;;;;;;1.57;1.57;;;6.10;99.90;;;;;;5033334;28;20466;-86
2021/11/20 07:55:17;;;;;;;0.30;0.30;;;6.10;99.90;;;;;;5033325;28;20488;-86
2021/11/20 07:57:45;;;;;;;0.50;0.50;;;6.10;99.90;;;;;;5033951;28;21557;-88
2021/11/20 08:00:14;;;;;;;0.40;0.30;;;6.10;99.90;;;;;;5033614;28;20506;-85
2021/11/20 08:02:41;;;;;;;0.77;0.77;;;6.10;99.90;;;;;;5033369;28;20454;-86
2021/11/20 08:05:09;;;;;;;0.30;0.30;;;6.10;99.90;;;;;;5033033;28;20864;-86
2021/11/20 08:07:37;;;;;;;0.30;0.30;;;6.20;99.90;;;;;;5033024;28;20427;-85
2021/11/20 08:10:04;;;;;;;0.70;0.40;;;6.20;99.90;;;;;;5033232;28;21101;-88
2021/11/20 08:12:31;;;;;;;0.40;0.40;;;6.30;99.90;;;;;;5033729;28;20439;-88
2021/11/20 08:14:59;;;;;;;0.30;0.30;;;6.30;99.90;;;;;;5033572;28;20478;-88
2021/11/20 08:17:26;;;;;;;0.30;0.20;;;6.30;99.90;;;;;;5033800;28;20798;-88
2021/11/20 08:19:53;;;;;;;0.40;0.40;;;6.40;99.90;;;;;;5034542;28;20435;-88
2021/11/20 08:22:20;;;;;;;0.40;0.30;;;6.40;99.90;;;;;;5033434;28;20440;-88
2021/11/20 08:24:47;;;;;;;0.30;0.20;;;6.50;99.90;;;;;;5033484;28;21024;-88
2021/11/20 08:27:14;;;;;;;0.30;0.30;;;6.50;99.90;;;;;;5033264;28;20435;-88
2021/11/20 08:29:41;;;;;;;0.30;0.30;;;6.50;99.90;;;;;;5033139;28;20474;-88
2021/11/20 08:32:11;;;;;;;0.40;0.40;;;6.50;99.90;;;;;;5033147;28;20431;-88
2021/11/20 08:34:40;;;;;;;0.53;0.53;;;6.50;99.90;;;;;;5033234;28;20459;-88
2021/11/20 08:37:08;;;;;;;1.73;1.73;;;6.60;99.90;;;;;;5033373;28;20482;-88
2021/11/20 08:39:35;;;;;;;1.37;1.30;;;6.60;99.90;;;;;;5033505;28;20805;-88
2021/11/20 08:42:03;;;;;;;0.30;0.20;;;6.60;99.90;;;;;;5033174;28;20828;-86
2021/11/20 08:44:30;;;;;;;0.83;0.83;;;6.60;99.90;;;;;;5032861;28;20478;-86
2021/11/20 08:46:58;;;;;;;0.30;0.27;;;6.60;99.90;;;;;;5033038;28;20942;-85
2021/11/20 08:49:26;;;;;;;0.30;0.20;;;6.70;99.90;;;;;;5032931;28;20488;-85
2021/11/20 08:51:53;;;;;;;0.30;0.30;;;6.70;99.90;;;;;;5032467;28;20951;-85
2021/11/20 08:54:21;;;;;;;0.30;0.20;;;6.70;99.90;;;;;;5032691;28;20974;-85
2021/11/20 08:56:49;;;;;;;0.40;0.40;;;6.70;99.90;;;;;;5034365;28;20454;-86
2021/11/20 08:59:20;;;;;;;0.40;0.30;;;6.70;99.90;;;;;;5035781;28;20961;-85
2021/11/20 09:01:49;;;;;;;0.30;0.30;;;6.70;99.90;;;;;;5036165;28;20526;-85
2021/11/20 09:04:25;;;;;;;0.30;0.20;;;6.70;99.90;;;;;;5036330;28;20581;-85
2021/11/20 09:07:00;;;;;;;0.30;0.30;;;6.80;99.90;;;;;;5036181;28;20917;-85
2021/11/20 09:09:43;;;;;;;0.30;0.30;;;6.80;99.90;;;;;;5036026;28;20465;-82
2021/11/20 09:12:21;;;;;;;0.50;0.50;;;6.80;99.90;;;;;;5035950;28;20434;-82
2021/11/20 09:14:51;;;;;;;0.30;0.30;;;6.80;99.90;;;;;;5035797;28;20474;-82
2021/11/20 09:17:20;;;;;;;0.63;0.63;;;6.80;99.90;;;;;;5035616;28;20427;-82
2021/11/20 09:19:48;;;;;;;1.17;1.07;;;6.90;99.90;;;;;;5035797;28;20450;-82
2021/11/20 09:22:17;;;;;;;0.30;0.23;;;6.90;99.90;;;;;;5035964;28;20453;-82
2021/11/20 09:24:46;;;;;;;0.30;0.30;;;6.80;99.90;;;;;;5035373;28;20462;-81
2021/11/20 09:27:14;;;;;;;0.40;0.40;;;6.90;99.90;;;;;;5035644;28;20478;-81
2021/11/20 09:29:42;;;;;;;0.30;0.20;;;6.90;99.90;;;;;;5035566;28;20482;-82
2021/11/20 09:32:10;;;;;;;0.30;0.20;;;6.90;99.90;;;;;;5035543;28;20458;-81
2021/11/20 09:34:37;;;;;;;0.30;0.20;;;6.90;99.90;;;;;;5035663;28;20466;-81
2021/11/20 09:37:04;;;;;;;1.03;0.60;;;6.90;99.90;;;;;;5035439;28;20449;-81
2021/11/20 09:39:35;;;;;;;0.30;0.20;;;6.90;99.90;;;;;;5035125;28;20438;-82
2021/11/20 09:42:26;;;;;;;0.30;0.20;;;6.90;99.90;;;;;;5035381;28;20953;-81
2021/11/20 09:44:56;;;;;;;0.50;0.50;;;6.90;99.90;;;;;;5035354;28;20835;-81
2021/11/20 09:47:28;;;;;;;0.30;0.20;;;6.80;99.90;;;;;;5035019;28;20926;-81
2021/11/20 09:49:58;;;;;;;0.30;0.30;;;6.90;99.90;;;;;;5035161;28;20529;-81
2021/11/20 09:52:25;;;;;;;0.30;0.20;;;6.90;99.90;;;;;;5034824;28;20427;-81
2021/11/20 09:54:53;;;;;;;0.80;0.80;;;6.90;99.90;;;;;;5035063;28;20476;-81
2021/11/20 09:57:48;;;;;;;0.30;0.30;;;6.90;99.90;;;;;;5035255;28;20490;-81
2021/11/20 10:00:51;;;;;;;0.33;0.33;;;6.90;99.90;;;;;;5034802;28;20907;-81
2021/11/20 10:03:31;;;;;;;1.70;0.70;;;6.90;99.90;;;;;;5030384;28;20462;-81
2021/11/20 10:06:03;;;;;;;2.13;0.47;;;6.90;99.90;;;;;;5034973;28;20443;-81
2021/11/20 10:08:32;;;;;;;0.43;0.43;;;6.90;99.90;;;;;;5034403;28;20415;-81
2021/11/20 10:11:22;;;;;;;0.30;0.20;;;7.00;99.90;;;;;;5034520;28;20431;-81
2021/11/20 10:13:53;;;;;;;0.30;0.30;;;7.00;99.90;;;;;;5034726;28;20478;-81
2021/11/20 10:16:24;;;;;;;0.40;0.30;;;7.00;99.90;;;;;;5034764;28;20442;-81
2021/11/20 10:18:55;;;;;;;0.40;0.40;;;7.00;99.90;;;;;;5034637;28;20805;-81
2021/11/20 10:21:29;;;;;;;0.30;0.30;;;7.00;99.90;;;;;;5034259;28;20802;-81
2021/11/20 10:24:16;;;;;;;1.53;0.57;;;7.00;99.90;;;;;;5034505;28;20481;-81
2021/11/20 10:27:04;;;;;;;0.30;0.20;;;7.10;99.90;;;;;;5034391;28;20486;-81
2021/11/20 10:29:52;;;;;;;0.30;0.30;;;7.00;99.90;;;;;;5034792;28;20462;-81
2021/11/20 10:32:22;;;;;;;0.30;0.20;;;7.00;99.90;;;;;;5034461;28;20435;-81
2021/11/20 10:34:53;;;;;;;0.30;0.30;;;7.00;99.90;;;;;;5033887;28;20470;-81
2021/11/20 10:37:26;;;;;;;7.20;0.50;;;7.00;99.90;;;;;;5034253;28;20440;-81
2021/11/20 10:39:54;;;;;;;0.30;0.20;;;7.00;99.90;;;;;;5034414;28;20434;-86
2021/11/20 10:42:33;;;;;;;0.47;0.47;;;7.10;99.90;;;;;;5034335;28;20451;-86
2021/11/20 10:45:08;;;;;;;0.53;0.40;;;7.10;99.90;;;;;;5034311;28;20492;-85
2021/11/20 10:47:40;;;;;;;0.30;0.30;;;7.20;99.90;;;;;;5034015;28;20434;-85
2021/11/20 10:50:29;;;;;;;0.30;0.30;;;7.10;99.90;;;;;;5034083;28;20524;-85
2021/11/20 10:53:26;;;;;;;0.30;0.30;;;7.00;99.90;;;;;;5034149;28;20777;-86
2021/11/20 10:56:08;;;;;;;1.37;1.13;;;7.00;99.90;;;;;;5033845;28;20435;-82
2021/11/20 10:59:09;;;;;;;0.30;0.30;;;6.90;99.90;;;;;;5033590;28;21006;-82
2021/11/20 11:02:24;;;;;;;0.50;0.30;;;6.90;99.90;;;;;;5033950;28;20448;-81
2021/11/20 11:05:45;;;;;;;0.30;0.30;;;6.80;99.90;;;;;;5003867;28;20475;-87
2021/11/20 11:08:29;;;;;;;0.50;0.47;;;6.90;99.90;;;;;;4911383;29;20451;-87
2021/11/20 11:11:02;;;;;;;0.37;0.37;;;6.90;99.90;;;;;;4934735;29;20467;-84
2021/11/20 11:13:50;;;;;;;0.30;0.20;;;6.90;99.90;;;;;;5008753;28;20450;-85
2021/11/20 11:16:25;;;;;;;0.50;0.40;;;7.00;99.90;;;;;;5033719;28;20438;-85
2021/11/20 11:18:56;;;;;;;1.17;0.73;;;7.00;99.90;;;;;;5033075;28;20441;-85
2021/11/20 11:21:57;;;;;;;0.30;0.30;;;7.00;99.90;;;;;;5033678;28;20430;-85
2021/11/20 11:25:00;;;;;;;0.30;0.20;;;7.10;99.90;;;;;;5033570;28;20458;-84
2021/11/20 11:27:33;;;;;;;0.30;0.30;;;7.20;99.90;;;;;;4986773;28;20446;-84
2021/11/20 11:30:10;;;;;;;0.30;0.30;;;7.20;99.90;;;;;;5033263;28;20978;-85
2021/11/20 11:32:41;;;;;;;0.30;0.30;;;7.30;99.90;;;;;;5033712;28;20476;-84
2021/11/20 11:35:16;;;;;;;0.30;0.30;;;7.20;99.90;;;;;;5033433;28;20502;-84
2021/11/20 11:38:07;;;;;;;0.33;0.33;;;7.20;99.90;;;;;;5033403;28;20439;-84
2021/11/20 11:40:42;;;;;;;0.40;0.30;;;7.10;99.90;;;;;;5033117;28;20771;-85
2021/11/20 11:43:15;;;;;;;0.30;0.30;;;7.20;99.90;;;;;;5033346;28;20466;-84
2021/11/20 11:46:21;;;;;;;0.70;0.70;;;7.10;99.90;;;;;;5033589;28;20478;-85
2021/11/20 11:49:19;;;;;;;0.60;0.30;;;7.10;99.90;;;;;;5033264;28;20438;-84
2021/11/20 11:52:16;;;;;;;0.30;0.20;;;7.10;99.90;;;;;;5031966;28;20961;-85
2021/11/20 11:54:45;;;;;;;0.37;0.30;;;7.20;99.90;;;;;;5033436;28;20503;-85
2021/11/20 11:57:40;;;;;;;0.30;0.30;;;7.10;99.90;;;;;;5032896;28;20911;-85
2021/11/20 12:00:28;;;;;;;1.10;0.63;;;7.20;99.90;;;;;;5032913;28;20498;-85
2021/11/20 12:02:57;;;;;;;0.70;0.50;;;7.30;99.90;;;;;;5032841;28;20946;-85
2021/11/20 12:05:33;;;;;;;0.50;0.43;;;7.30;99.90;;;;;;5034033;28;20470;-85
2021/11/20 12:08:22;;;;;;;0.30;0.27;;;7.40;99.90;;;;;;5033198;28;20434;-85
2021/11/20 12:10:57;;;;;;;1.07;0.30;;;7.30;99.90;;;;;;5032948;28;20455;-84
2021/11/20 12:13:31;;;;;;;0.30;0.30;;;7.30;99.90;;;;;;5032922;28;20441;-84
2021/11/20 12:16:29;;;;;;;0.40;0.40;;;7.20;99.90;;;;;;5032915;28;20522;-84
2021/11/20 12:19:01;;;;;;;0.30;0.20;;;7.20;99.90;;;;;;5030789;28;20465;-84
2021/11/20 12:21:38;;;;;;;0.30;0.27;;;7.10;99.90;;;;;;5032930;28;20435;-84
2021/11/20 12:24:17;;;;;;;0.40;0.37;;;7.10;99.90;;;;;;5032950;28;20478;-84
2021/11/20 12:26:56;;;;;;;0.37;0.33;;;7.20;99.90;;;;;;5032998;28;20435;-84
2021/11/20 12:29:52;;;;;;;0.30;0.20;;;7.10;99.90;;;;;;5032823;28;20462;-84
2021/11/20 12:33:01;;;;;;;0.40;0.40;;;7.20;99.90;;;;;;5026487;28;20450;-83
2021/11/20 12:35:39;;;;;;;0.50;0.40;;;7.20;99.90;;;;;;5036326;28;20447;-85
2021/11/20 12:38:22;;;;;;;0.30;0.20;;;7.20;99.90;;;;;;5036321;28;20426;-85
2021/11/20 12:41:13;;;;;;;0.40;0.30;;;7.30;99.90;;;;;;5036641;28;20415;-84
2021/11/20 12:44:01;;;;;;;1.00;0.60;;;7.30;99.90;;;;;;5036506;28;20430;-85
2021/11/20 12:46:44;;;;;;;0.60;0.43;;;7.30;99.90;;;;;;5036429;28;20453;-81
2021/11/20 12:49:17;;;;;;;0.50;0.40;;;7.30;99.90;;;;;;5036389;28;20411;-81
2021/11/20 12:51:55;;;;;;;0.30;0.23;;;7.30;99.90;;;;;;5036110;28;20437;-81
2021/11/20 12:54:41;;;;;;;1.23;0.53;;;7.30;99.90;;;;;;5035905;28;20996;-81
2021/11/20 12:57:15;;;;;;;0.30;0.20;;;7.20;99.90;;;;;;5033060;28;20462;-84
2021/11/20 12:59:46;;;;;;;0.87;0.87;;;7.30;99.90;;;;;;5035854;28;20995;-84
2021/11/20 13:02:28;;;;;;;0.40;0.40;;;7.30;99.90;;;;;;5036021;28;20906;-85
2021/11/20 13:04:56;;;;;;;0.40;0.40;;;7.30;99.90;;;;;;5035765;28;20894;-85
2021/11/20 13:07:25;;;;;;;1.27;1.27;;;7.30;99.90;;;;;;5037010;28;20770;-81
2021/11/20 13:09:59;;;;;;;1.37;0.40;;;7.30;99.90;;;;;;5036137;28;20462;-82
2021/11/20 13:12:32;;;;;;;0.40;0.40;;;7.30;99.90;;;;;;5035971;28;20439;-82
2021/11/20 13:15:15;;;;;;;0.60;0.60;;;7.40;99.90;;;;;;5036555;28;21005;-89
2021/11/20 13:17:54;;;;;;;0.30;0.30;;;7.40;99.90;;;;;;5036126;28;20421;-86
2021/11/20 13:20:25;;;;;;;0.30;0.20;;;7.40;99.90;;;;;;5035911;28;20431;-85
2021/11/20 13:23:04;;;;;;;0.50;0.40;;;7.40;99.90;;;;;;5035592;28;20933;-86